createdAt,value
2022-09-14T00:01:28.974Z,4.80
2022-09-14T00:03:59.067Z,4.97
2022-09-14T00:06:28.469Z,5.87
2022-09-14T00:08:58.067Z,5.77
2022-09-14T00:11:29.562Z,5.23
2022-09-14T00:13:58.610Z,5.40
2022-09-14T00:16:30.024Z,4.90
2022-09-14T00:19:00.490Z,4.20
2022-09-14T00:21:28.927Z,4.33
2022-09-14T00:23:56.899Z,3.93
2022-09-14T00:26:25.656Z,5.03
2022-09-14T00:28:56.831Z,4.43
2022-09-14T00:31:26.126Z,4.40
2022-09-14T00:33:54.931Z,4.20
2022-09-14T00:36:24.476Z,4.77
2022-09-14T00:38:53.061Z,5.07
2022-09-14T00:41:23.082Z,4.70
2022-09-14T00:43:58.869Z,4.70
2022-09-14T00:46:28.638Z,4.90
2022-09-14T00:49:02.442Z,4.67
2022-09-14T00:51:32.982Z,5.03
2022-09-14T00:54:02.409Z,5.27
2022-09-14T00:56:30.835Z,5.30
2022-09-14T00:59:03.231Z,6.03
2022-09-14T01:01:31.077Z,5.90
2022-09-14T01:03:59.003Z,6.23
2022-09-14T01:06:35.904Z,5.83
2022-09-14T01:09:15.909Z,4.80
2022-09-14T01:11:54.941Z,5.23
2022-09-14T01:14:29.673Z,5.80
2022-09-14T01:17:05.627Z,5.57
2022-09-14T01:19:47.162Z,4.93
2022-09-14T01:22:22.118Z,6.17
2022-09-14T01:24:54.473Z,5.20
2022-09-14T01:27:32.551Z,4.53
2022-09-14T01:30:10.221Z,6.33
2022-09-14T01:32:43.596Z,5.97
2022-09-14T01:35:17.042Z,5.67
2022-09-14T01:37:48.997Z,5.97
2022-09-14T01:40:21.866Z,5.33
2022-09-14T01:42:56.002Z,5.97
2022-09-14T01:45:27.091Z,5.40
2022-09-14T01:47:58.980Z,6.10
2022-09-14T01:50:31.231Z,6.17
2022-09-14T01:53:05.444Z,6.63
2022-09-14T01:55:36.879Z,6.30
2022-09-14T01:58:09.798Z,6.13
2022-09-14T02:00:40.620Z,6.30
2022-09-14T02:03:13.519Z,7.40
2022-09-14T02:05:48.844Z,7.43
2022-09-14T02:08:16.902Z,6.80
2022-09-14T02:10:44.947Z,7.70
2022-09-14T02:13:14.276Z,7.97
2022-09-14T02:15:42.167Z,8.67
2022-09-14T02:18:10.016Z,7.03
2022-09-14T02:20:42.842Z,7.83
2022-09-14T02:23:11.032Z,6.57
2022-09-14T02:25:41.004Z,8.90
2022-09-14T02:28:09.071Z,10.03
2022-09-14T02:30:48.798Z,10.23
2022-09-14T02:33:21.979Z,10.40
2022-09-14T02:35:54.749Z,10.40
2022-09-14T02:38:30.107Z,11.07
2022-09-14T02:41:04.194Z,11.33
2022-09-14T02:43:43.518Z,12.50
2022-09-14T02:46:18.549Z,11.60
2022-09-14T02:48:56.345Z,11.57
2022-09-14T02:51:29.843Z,10.90
2022-09-14T02:54:02.043Z,10.83
2022-09-14T02:56:30.562Z,10.50
2022-09-14T02:58:58.542Z,9.53
2022-09-14T03:01:27.951Z,9.33
2022-09-14T03:03:55.880Z,9.27
2022-09-14T03:06:24.083Z,8.90
2022-09-14T03:08:52.067Z,7.77
2022-09-14T03:11:20.420Z,8.97
2022-09-14T03:13:48.464Z,7.80
2022-09-14T03:16:17.405Z,9.20
2022-09-14T03:18:46.643Z,9.57
2022-09-14T03:21:16.561Z,9.10
2022-09-14T03:23:46.225Z,9.60
2022-09-14T03:26:15.570Z,10.57
2022-09-14T03:28:43.907Z,10.53
2022-09-14T03:31:13.615Z,12.20
2022-09-14T03:33:41.842Z,13.20
2022-09-14T03:36:16.537Z,12.37
2022-09-14T03:38:45.475Z,11.77
2022-09-14T03:41:15.048Z,13.37
2022-09-14T03:43:44.310Z,14.10
2022-09-14T03:46:14.025Z,14.60
2022-09-14T03:48:42.180Z,13.43
2022-09-14T03:51:12.207Z,12.50
2022-09-14T03:53:42.435Z,11.53
2022-09-14T03:56:11.560Z,12.17
2022-09-14T03:58:40.075Z,12.97
2022-09-14T04:01:09.579Z,11.93
2022-09-14T04:03:38.072Z,14.47
2022-09-14T04:06:06.543Z,16.23
2022-09-14T04:08:35.972Z,14.50
2022-09-14T04:11:09.540Z,15.13
2022-09-14T04:13:37.928Z,18.33
2022-09-14T04:16:06.086Z,17.93
2022-09-14T04:18:34.675Z,16.57
2022-09-14T04:23:31.138Z,17.00
2022-09-14T04:25:59.098Z,15.30
2022-09-14T04:28:31.425Z,14.67
2022-09-14T04:31:00.640Z,14.90
2022-09-14T04:33:31.814Z,15.10
2022-09-14T04:36:01.738Z,17.83
2022-09-14T04:38:30.690Z,13.00
2022-09-14T04:40:59.123Z,15.57
2022-09-14T04:43:28.526Z,16.00
2022-09-14T04:46:03.271Z,15.03
2022-09-14T04:48:34.892Z,13.07
2022-09-14T04:51:04.193Z,13.40
2022-09-14T04:53:34.234Z,13.13
2022-09-14T04:56:02.704Z,13.40
2022-09-14T04:58:31.921Z,12.47
2022-09-14T05:01:02.895Z,12.30
2022-09-14T05:03:30.975Z,13.33
2022-09-14T05:06:02.889Z,12.17
2022-09-14T05:08:31.226Z,14.27
2022-09-14T05:10:59.645Z,13.63
2022-09-14T05:13:27.807Z,15.73
2022-09-14T05:16:05.134Z,15.47
2022-09-14T05:18:33.217Z,13.33
2022-09-14T05:23:31.049Z,17.20
2022-09-14T05:25:59.578Z,14.90
2022-09-14T05:28:28.012Z,15.27
2022-09-14T05:30:57.422Z,15.20
2022-09-14T05:33:25.881Z,18.70
2022-09-14T05:35:54.013Z,17.97
2022-09-14T05:38:21.855Z,16.13
2022-09-14T05:40:49.835Z,16.20
2022-09-14T05:43:17.711Z,16.90
2022-09-14T05:45:45.755Z,18.87
2022-09-14T05:48:14.942Z,19.80
2022-09-14T05:50:42.828Z,17.20
2022-09-14T05:53:10.708Z,17.07
2022-09-14T05:55:38.896Z,21.97
2022-09-14T05:58:06.718Z,18.43
2022-09-14T06:00:34.935Z,17.23
2022-09-14T06:03:02.796Z,17.53
2022-09-14T06:05:32.135Z,15.67
2022-09-14T06:07:59.996Z,17.20
2022-09-14T06:10:27.979Z,18.50
2022-09-14T06:12:55.935Z,18.57
2022-09-14T06:15:24.583Z,18.13
2022-09-14T06:17:52.521Z,18.30
2022-09-14T06:20:20.377Z,15.53
2022-09-14T06:22:49.641Z,14.43
2022-09-14T06:25:17.668Z,15.37
2022-09-14T06:27:45.527Z,16.63
2022-09-14T06:30:14.177Z,13.93
2022-09-14T06:32:42.026Z,13.10
2022-09-14T06:35:12.583Z,12.47
2022-09-14T06:37:40.538Z,12.90
2022-09-14T06:40:10.899Z,12.13
2022-09-14T06:42:38.806Z,11.50
2022-09-14T06:45:08.107Z,13.03
2022-09-14T06:47:35.986Z,13.33
2022-09-14T06:50:04.124Z,11.50
2022-09-14T06:52:33.867Z,13.50
2022-09-14T06:55:02.032Z,11.73
2022-09-14T06:57:31.279Z,13.27
2022-09-14T06:59:59.194Z,13.93
2022-09-14T07:02:27.253Z,13.23
2022-09-14T07:04:55.528Z,15.90
2022-09-14T07:07:23.524Z,16.67
2022-09-14T07:09:51.429Z,16.93
2022-09-14T07:12:19.374Z,15.43
2022-09-14T07:14:48.665Z,16.23
2022-09-14T07:17:18.086Z,14.77
2022-09-14T07:19:46.197Z,16.90
2022-09-14T07:22:14.084Z,14.20
2022-09-14T07:24:42.089Z,14.93
2022-09-14T07:27:10.011Z,13.80
2022-09-14T07:29:37.938Z,14.43
2022-09-14T07:32:07.522Z,12.80
2022-09-14T07:34:35.375Z,11.93
2022-09-14T07:37:03.293Z,11.93
2022-09-14T07:39:31.152Z,9.17
2022-09-14T07:41:59.095Z,9.90
2022-09-14T07:44:26.985Z,9.87
2022-09-14T07:46:54.956Z,9.27
2022-09-14T07:49:24.650Z,9.30
2022-09-14T07:51:54.044Z,7.77
2022-09-14T07:54:22.159Z,8.63
2022-09-14T07:56:50.560Z,7.63
2022-09-14T07:59:38.619Z,7.93
2022-09-14T08:02:08.536Z,6.93
2022-09-14T08:04:39.322Z,6.00
2022-09-14T08:07:07.827Z,6.87
2022-09-14T08:09:36.398Z,6.40
2022-09-14T08:12:05.635Z,6.90
2022-09-14T08:14:34.221Z,7.20
2022-09-14T08:17:02.352Z,6.70
2022-09-14T08:19:31.183Z,6.60
2022-09-14T08:22:00.853Z,7.07
2022-09-14T08:24:29.402Z,7.53
2022-09-14T08:26:57.891Z,7.53
2022-09-14T08:29:26.698Z,6.80
2022-09-14T08:31:54.984Z,6.87
2022-09-14T08:34:24.651Z,5.60
2022-09-14T08:36:52.849Z,6.23
2022-09-14T08:39:22.281Z,6.30
2022-09-14T08:41:55.192Z,6.75
2022-09-14T08:44:27.886Z,6.33
2022-09-14T08:47:04.030Z,6.30
2022-09-14T08:49:46.755Z,6.00
2022-09-14T08:52:22.954Z,6.23
2022-09-14T08:54:55.021Z,6.47
2022-09-14T08:57:34.134Z,5.90
2022-09-14T09:00:09.959Z,7.40
2022-09-14T09:02:54.665Z,6.60
2022-09-14T09:05:31.103Z,7.07
2022-09-14T09:08:07.897Z,6.97
2022-09-14T09:10:40.088Z,7.60
2022-09-14T09:13:13.690Z,7.90
2022-09-14T09:15:46.164Z,6.97
2022-09-14T09:18:18.060Z,6.67
2022-09-14T09:20:50.189Z,7.10
2022-09-14T09:23:19.844Z,7.10
2022-09-14T09:25:55.138Z,6.75
2022-09-14T09:28:24.429Z,6.77
2022-09-14T09:30:53.869Z,6.47
2022-09-14T09:33:24.295Z,6.90
2022-09-14T09:35:52.485Z,6.17
2022-09-14T09:38:24.884Z,6.10
2022-09-14T09:40:59.518Z,6.70
2022-09-14T09:43:45.739Z,6.10
2022-09-14T09:46:15.984Z,5.53
2022-09-14T09:48:46.537Z,5.97
2022-09-14T09:51:16.907Z,5.30
2022-09-14T09:53:52.290Z,5.60
2022-09-14T09:56:25.344Z,5.27
2022-09-14T09:58:53.459Z,5.13
2022-09-14T10:01:27.390Z,4.73
2022-09-14T10:04:04.533Z,5.60
2022-09-14T10:06:33.616Z,6.03
2022-09-14T10:09:01.515Z,5.70
2022-09-14T10:11:34.480Z,5.07
2022-09-14T10:14:04.999Z,4.67
2022-09-14T10:16:39.079Z,4.93
2022-09-14T10:19:15.359Z,5.30
2022-09-14T10:22:21.840Z,4.77
2022-09-14T10:24:58.268Z,5.00
2022-09-14T10:27:40.628Z,4.63
2022-09-14T10:30:17.165Z,4.20
2022-09-14T10:32:50.900Z,4.90
2022-09-14T10:35:20.168Z,5.37
2022-09-14T10:38:00.129Z,4.87
2022-09-14T10:40:36.571Z,4.77
2022-09-14T10:43:18.265Z,4.90
2022-09-14T10:45:52.395Z,4.80
2022-09-14T10:49:05.414Z,4.93
2022-09-14T10:51:43.148Z,5.20
2022-09-14T10:54:30.127Z,5.17
2022-09-14T10:57:09.545Z,4.83
2022-09-14T10:59:48.658Z,5.07
2022-09-14T11:02:39.449Z,4.23
2022-09-14T11:05:23.323Z,4.63
2022-09-14T11:08:01.971Z,5.10
2022-09-14T11:10:34.825Z,5.00
2022-09-14T11:13:27.905Z,5.13
2022-09-14T11:16:03.905Z,5.13
2022-09-14T11:18:45.133Z,5.33
2022-09-14T11:21:22.173Z,4.90
2022-09-14T11:23:54.351Z,5.20
2022-09-14T11:26:31.340Z,5.77
2022-09-14T11:29:04.052Z,5.60
2022-09-14T11:31:37.645Z,4.83
2022-09-14T11:34:16.337Z,5.33
2022-09-14T11:36:48.280Z,5.87
2022-09-14T11:39:22.031Z,5.40
2022-09-14T11:41:54.240Z,5.03
2022-09-14T11:44:25.546Z,5.27
2022-09-14T11:47:00.897Z,4.87
2022-09-14T11:49:39.600Z,5.90
2022-09-14T11:52:15.657Z,4.83
2022-09-14T11:54:46.876Z,6.03
2022-09-14T11:57:18.830Z,8.43
2022-09-14T11:59:52.840Z,5.60
2022-09-14T12:03:13.553Z,12.87
2022-09-14T12:05:43.464Z,6.43
2022-09-14T12:08:42.124Z,5.63
2022-09-14T12:11:33.201Z,7.87
2022-09-14T12:14:34.348Z,6.10
2022-09-14T12:17:38.183Z,6.03
2022-09-14T12:20:34.857Z,5.90
2022-09-14T12:23:07.809Z,6.13
2022-09-14T12:25:38.526Z,6.57
2022-09-14T12:28:31.727Z,5.73
2022-09-14T12:31:13.130Z,6.93
2022-09-14T12:34:05.838Z,7.97
2022-09-14T12:37:13.408Z,7.57
2022-09-14T12:40:36.159Z,8.27
2022-09-14T12:43:49.547Z,9.20
2022-09-14T12:46:39.646Z,9.27
2022-09-14T12:49:31.647Z,10.40
2022-09-14T12:52:12.149Z,10.10
2022-09-14T12:54:59.777Z,9.27
2022-09-14T12:57:35.960Z,10.00
2022-09-14T13:00:14.464Z,8.70
2022-09-14T13:03:10.733Z,9.40
2022-09-14T13:05:38.834Z,8.80
2022-09-14T13:08:11.551Z,9.03
2022-09-14T13:10:47.100Z,10.07
2022-09-14T13:13:19.328Z,10.20
2022-09-14T13:15:54.867Z,8.60
2022-09-14T13:18:33.501Z,10.67
2022-09-14T13:21:03.254Z,12.07
2022-09-14T13:23:37.023Z,10.50
2022-09-14T13:26:11.708Z,8.83
2022-09-14T13:28:42.997Z,9.93
2022-09-14T13:31:15.940Z,10.07
2022-09-14T13:33:51.586Z,10.30
2022-09-14T13:36:22.668Z,8.43
2022-09-14T13:38:51.242Z,8.57
2022-09-14T13:41:23.230Z,10.37
2022-09-14T13:43:54.216Z,12.27
2022-09-14T13:46:23.378Z,11.90
2022-09-14T13:48:54.019Z,10.13
2022-09-14T13:51:25.958Z,12.03
2022-09-14T13:53:55.954Z,12.90
2022-09-14T13:56:28.121Z,14.23
2022-09-14T13:59:20.594Z,13.27
2022-09-14T14:01:58.197Z,10.67
2022-09-14T14:04:35.486Z,9.90
2022-09-14T14:07:20.479Z,10.43
2022-09-14T14:09:51.625Z,10.97
2022-09-14T14:12:26.501Z,10.60
2022-09-14T14:14:56.207Z,14.00
2022-09-14T14:17:38.762Z,14.07
2022-09-14T14:20:37.187Z,14.73
2022-09-14T14:23:21.210Z,14.83
2022-09-14T14:25:54.256Z,17.20
2022-09-14T14:28:25.917Z,29.00
2022-09-14T14:30:54.634Z,17.20
2022-09-14T14:33:22.704Z,19.80
2022-09-14T14:35:54.403Z,14.90
2022-09-14T14:38:23.687Z,16.07
2022-09-14T14:40:55.196Z,16.37
2022-09-14T14:43:26.347Z,16.33
2022-09-14T14:45:56.828Z,18.20
2022-09-14T14:48:24.905Z,15.47
2022-09-14T14:50:55.658Z,13.43
2022-09-14T14:53:23.894Z,10.47
2022-09-14T14:55:51.788Z,8.20
2022-09-14T14:58:21.536Z,9.20
2022-09-14T15:00:49.736Z,7.80
2022-09-14T15:03:18.881Z,7.33
2022-09-14T15:05:48.283Z,6.43
2022-09-14T15:08:19.920Z,5.53
2022-09-14T15:10:48.120Z,6.43
2022-09-14T15:13:16.587Z,5.63
2022-09-14T15:15:44.965Z,6.20
2022-09-14T15:18:12.853Z,5.43
2022-09-14T15:20:41.175Z,6.57
2022-09-14T15:23:10.017Z,5.20
2022-09-14T15:25:39.817Z,5.40
2022-09-14T15:28:07.705Z,5.10
2022-09-14T15:30:35.539Z,5.90
2022-09-14T15:33:03.452Z,6.80
2022-09-14T15:35:31.345Z,5.70
2022-09-14T15:37:59.245Z,6.37
2022-09-14T15:40:27.416Z,6.23
2022-09-14T15:42:56.717Z,5.87
2022-09-14T15:45:24.623Z,6.30
2022-09-14T15:47:52.717Z,6.97
2022-09-14T15:50:20.646Z,7.20
2022-09-14T15:52:48.527Z,5.57
2022-09-14T15:55:16.436Z,6.93
2022-09-14T15:57:44.297Z,7.27
2022-09-14T16:00:15.514Z,6.27
2022-09-14T16:02:43.434Z,6.20
2022-09-14T16:05:12.944Z,5.97
2022-09-14T16:07:40.938Z,6.07
2022-09-14T16:10:09.956Z,6.07
2022-09-14T16:12:37.925Z,6.90
2022-09-14T16:15:06.619Z,5.23
2022-09-14T16:17:35.887Z,6.87
2022-09-14T16:20:04.812Z,6.50
2022-09-14T16:22:33.348Z,7.27
2022-09-14T16:25:01.266Z,6.07
2022-09-14T16:27:30.307Z,6.97
2022-09-14T16:29:58.205Z,6.30
2022-09-14T16:32:26.266Z,6.63
2022-09-14T16:34:55.826Z,7.27
2022-09-14T16:37:23.703Z,6.10
2022-09-14T16:39:51.868Z,6.20
2022-09-14T16:42:20.156Z,6.93
2022-09-14T16:44:48.097Z,6.53
2022-09-14T16:47:16.023Z,6.97
2022-09-14T16:49:44.200Z,6.97
2022-09-14T16:52:13.437Z,7.63
2022-09-14T16:54:41.504Z,7.90
2022-09-14T16:57:09.774Z,8.23
2022-09-14T16:59:37.676Z,6.83
2022-09-14T17:02:24.194Z,6.77
2022-09-14T17:05:25.680Z,4.00
2022-09-14T17:08:08.897Z,3.50
2022-09-14T17:10:45.626Z,3.10
2022-09-14T17:13:17.861Z,3.50
2022-09-14T17:15:46.254Z,4.33
2022-09-14T17:18:14.411Z,4.07
2022-09-14T17:20:42.303Z,3.93
2022-09-14T17:23:11.771Z,4.00
2022-09-14T17:25:40.189Z,3.63
2022-09-14T17:28:08.094Z,4.07
2022-09-14T17:30:36.012Z,4.80
2022-09-14T17:33:04.011Z,3.60
2022-09-14T17:35:31.956Z,3.40
2022-09-14T17:37:59.909Z,3.37
2022-09-14T17:40:31.230Z,3.67
2022-09-14T17:42:59.480Z,3.93
2022-09-14T17:45:27.719Z,3.57
2022-09-14T17:47:55.660Z,2.90
2022-09-14T17:50:23.686Z,2.70
2022-09-14T17:52:52.087Z,2.67
2022-09-14T17:55:20.589Z,2.30
2022-09-14T17:57:50.141Z,2.60
2022-09-14T18:00:18.888Z,2.57
2022-09-14T18:02:51.868Z,2.23
2022-09-14T18:05:20.125Z,2.23
2022-09-14T18:07:48.189Z,2.07
2022-09-14T18:10:18.879Z,2.20
2022-09-14T18:12:49.996Z,2.57
2022-09-14T18:15:19.260Z,2.20
2022-09-14T18:17:47.931Z,2.47
2022-09-14T18:20:15.913Z,2.67
2022-09-14T18:22:44.085Z,2.77
2022-09-14T18:25:12.423Z,2.77
2022-09-14T18:27:40.669Z,2.60
2022-09-14T18:30:13.179Z,2.90
2022-09-14T18:32:41.094Z,3.60
2022-09-14T18:35:10.299Z,2.87
2022-09-14T18:37:38.244Z,3.27
2022-09-14T18:40:06.825Z,3.80
2022-09-14T18:42:34.759Z,2.20
2022-09-14T18:45:02.645Z,3.10
2022-09-14T18:47:39.770Z,2.70
2022-09-14T18:50:08.272Z,2.10
2022-09-14T18:52:36.499Z,2.90
2022-09-14T18:55:04.880Z,3.20
2022-09-14T18:57:33.035Z,2.30
2022-09-14T19:00:01.085Z,2.60
2022-09-14T19:02:29.118Z,2.53
2022-09-14T19:04:59.315Z,2.97
2022-09-14T19:07:27.503Z,3.33
2022-09-14T19:09:56.933Z,4.13
2022-09-14T19:12:28.059Z,4.43
2022-09-14T19:14:56.106Z,3.90
2022-09-14T19:17:24.255Z,4.17
2022-09-14T19:19:54.935Z,4.53
2022-09-14T19:22:24.578Z,4.00
2022-09-14T19:24:52.746Z,3.17
2022-09-14T19:27:21.077Z,3.47
2022-09-14T19:29:49.378Z,3.23
2022-09-14T19:32:18.837Z,3.10
2022-09-14T19:34:47.308Z,3.73
2022-09-14T19:37:15.980Z,3.00
2022-09-14T19:39:45.734Z,3.10
2022-09-14T19:42:13.921Z,3.10
2022-09-14T19:44:41.984Z,2.87
2022-09-14T19:47:09.940Z,3.70
2022-09-14T19:49:37.932Z,2.90
2022-09-14T19:52:06.383Z,2.87
2022-09-14T19:54:35.054Z,2.97
2022-09-14T19:57:04.929Z,3.13
2022-09-14T19:59:32.908Z,3.13
2022-09-14T20:02:01.333Z,4.03
2022-09-14T20:04:29.377Z,4.47
2022-09-14T20:06:57.455Z,4.90
2022-09-14T20:09:25.818Z,5.00
2022-09-14T20:11:54.464Z,5.63
2022-09-14T20:14:25.975Z,4.73
2022-09-14T20:16:56.059Z,5.27
2022-09-14T20:19:26.517Z,4.33
2022-09-14T20:21:55.572Z,5.17
2022-09-14T20:24:25.730Z,4.77
2022-09-14T20:26:55.588Z,5.10
2022-09-14T20:29:28.406Z,4.70
2022-09-14T20:31:56.411Z,4.80
2022-09-14T20:34:24.948Z,5.93
2022-09-14T20:37:03.788Z,5.50
2022-09-14T20:39:35.845Z,5.20
2022-09-14T20:42:04.043Z,5.50
2022-09-14T20:44:33.778Z,4.60
2022-09-14T20:47:01.915Z,4.13
2022-09-14T20:49:30.158Z,4.40
2022-09-14T20:52:00.582Z,3.60
2022-09-14T20:54:28.478Z,3.80
2022-09-14T20:56:59.941Z,3.70
2022-09-14T20:59:30.456Z,3.70
2022-09-14T21:02:04.662Z,3.50
2022-09-14T21:04:35.774Z,3.90
2022-09-14T21:07:03.673Z,3.77
2022-09-14T21:09:32.082Z,4.17
2022-09-14T21:12:00.120Z,3.77
2022-09-14T21:14:28.552Z,4.50
2022-09-14T21:16:57.445Z,4.00
2022-09-14T21:19:28.662Z,4.07
2022-09-14T21:21:57.851Z,5.13
2022-09-14T21:24:26.530Z,5.13
2022-09-14T21:26:54.544Z,4.97
2022-09-14T21:29:23.898Z,5.90
2022-09-14T21:31:53.028Z,6.70
2022-09-14T21:34:21.037Z,5.60
2022-09-14T21:36:52.030Z,6.50
2022-09-14T21:39:23.385Z,6.87
2022-09-14T21:41:57.292Z,6.30
2022-09-14T21:44:29.937Z,6.53
2022-09-14T21:46:57.875Z,5.33
2022-09-14T21:49:25.744Z,5.70
2022-09-14T21:51:55.532Z,5.17
2022-09-14T21:54:23.513Z,5.20
2022-09-14T21:56:51.383Z,4.70
2022-09-14T21:59:22.213Z,4.33
2022-09-14T22:01:50.406Z,4.70
2022-09-14T22:04:21.513Z,4.47
2022-09-14T22:06:51.349Z,4.67
2022-09-14T22:09:22.955Z,4.60
2022-09-14T22:11:50.896Z,4.90
2022-09-14T22:14:20.508Z,5.00
2022-09-14T22:16:49.669Z,4.87
2022-09-14T22:19:21.016Z,4.47
2022-09-14T22:21:49.500Z,5.27
2022-09-14T22:24:21.069Z,5.40
2022-09-14T22:26:50.266Z,5.73
2022-09-14T22:29:18.783Z,5.40
2022-09-14T22:31:47.554Z,5.27
2022-09-14T22:34:16.346Z,4.93
2022-09-14T22:36:44.992Z,4.80
2022-09-14T22:39:12.891Z,5.17
2022-09-14T22:41:42.210Z,5.47
2022-09-14T22:44:12.661Z,5.27
2022-09-14T22:46:41.144Z,4.53
2022-09-14T22:49:09.049Z,4.73
2022-09-14T22:51:36.962Z,5.07
2022-09-14T22:54:05.428Z,4.90
2022-09-14T22:56:35.427Z,5.37
2022-09-14T22:59:07.058Z,5.40
2022-09-14T23:01:39.215Z,5.53
2022-09-14T23:04:09.581Z,5.73
2022-09-14T23:06:39.904Z,6.30
2022-09-14T23:09:09.598Z,6.00
2022-09-14T23:11:37.889Z,6.73
2022-09-14T23:14:07.411Z,6.47
2022-09-14T23:16:35.359Z,5.70
2022-09-14T23:19:06.619Z,6.67
2022-09-14T23:21:35.441Z,6.17
2022-09-14T23:24:05.600Z,6.00
2022-09-14T23:26:34.319Z,6.00
2022-09-14T23:29:09.252Z,6.33
2022-09-14T23:31:37.108Z,6.10
2022-09-14T23:34:06.606Z,7.03
2022-09-14T23:36:35.270Z,6.73
2022-09-14T23:39:03.215Z,6.40
2022-09-14T23:41:31.450Z,6.33
2022-09-14T23:43:59.319Z,8.00
2022-09-14T23:46:28.699Z,7.60
2022-09-14T23:48:56.707Z,8.47
2022-09-14T23:51:24.864Z,7.73
2022-09-14T23:53:52.773Z,7.93
2022-09-14T23:56:20.871Z,8.90
2022-09-14T23:58:48.877Z,8.73
